Vida, Oregon
Current Conditions -  °F | °C
As of 10:54 PM on Wednesday 17 Dec 2014 (Local Time) from KEUG Reporting Station
Overcast Overcast  
Wind Chill: 43°   Ceiling: 5500
Heat Index: 45°   Visibility: 10mi
Dew Point: 43°   Wind: 5mph
Humidity: 93%   Direction: 170°S
Pressure: 29.99"   Gusts: NA
Location:  44.15°N, 122.57°W
Report Text: KEUG 180654Z 17004KT 10SM OVC055 07/06 A2999 RMK AO2 SLP156 T00720061
Loading
Personal Weather Stations






























Interactive Weather Map New forecast layout! Learn more

10-Day Weather Forecast

Advertisements
Track Severe Weather on mobile